Time;durP1;ratioP1;P1;durP2;ratioP2;P2;SDS_P1;SDS_P2;PMS_P1;PMS_P2;Temp;Humidity;BMP_temperature;BMP_pressure;BME280_temperature;BME280_humidity;BME280_pressure;Samples;Min_cycle;Max_cycle;Signal;HPM_P1;HPM_P2
2023/10/05 00:02:08;;;;;;;0.30;0.30;;;14.70;68.60;;;;;;5039553;28;20037;-70
2023/10/05 00:04:41;;;;;;;0.65;0.32;;;14.60;68.60;;;;;;5054071;28;20073;-70
2023/10/05 00:07:26;;;;;;;0.65;0.20;;;14.60;68.70;;;;;;5037865;28;20079;-70
2023/10/05 00:09:53;;;;;;;1.00;0.55;;;14.60;68.80;;;;;;5020878;28;20098;-70
2023/10/05 00:12:22;;;;;;;0.20;0.20;;;14.60;68.60;;;;;;5054242;28;20040;-70
2023/10/05 00:17:39;;;;;;;0.10;0.10;;;14.60;68.70;;;;;;5055223;28;20072;-71
2023/10/05 00:20:10;;;;;;;0.30;0.30;;;14.60;68.80;;;;;;5036909;28;20063;-71
2023/10/05 00:22:37;;;;;;;1.23;0.93;;;14.60;68.80;;;;;;5054682;28;20425;-70
2023/10/05 00:25:04;;;;;;;0.43;0.43;;;14.60;68.50;;;;;;5037056;28;20026;-70
2023/10/05 00:27:30;;;;;;;0.98;0.70;;;14.50;68.50;;;;;;5054535;28;20079;-70
2023/10/05 00:29:56;;;;;;;0.25;0.25;;;14.40;68.20;;;;;;5054583;28;20041;-70
2023/10/05 00:32:34;;;;;;;0.60;0.60;;;14.30;68.00;;;;;;5019331;28;20041;-70
2023/10/05 00:37:48;;;;;;;1.48;0.63;;;14.10;68.20;;;;;;5053573;28;20079;-70
2023/10/05 00:45:49;;;;;;;0.85;0.40;;;14.00;69.10;;;;;;5053215;28;20072;-70
2023/10/05 00:48:35;;;;;;;1.65;0.82;;;14.00;69.10;;;;;;5054551;28;20602;-71
2023/10/05 00:51:12;;;;;;;0.52;0.25;;;14.00;68.90;;;;;;5053533;28;20037;-70
2023/10/05 00:53:39;;;;;;;0.50;0.50;;;14.00;68.80;;;;;;5054578;28;20094;-70
2023/10/05 00:56:12;;;;;;;0.55;0.40;;;14.10;68.40;;;;;;5036209;28;20033;-71
2023/10/05 00:58:54;;;;;;;0.20;0.20;;;14.10;68.80;;;;;;5037267;28;20045;-70
2023/10/05 01:01:27;;;;;;;0.40;0.35;;;14.10;68.90;;;;;;5037327;28;20052;-70
2023/10/05 01:06:54;;;;;;;0.25;0.20;;;14.00;68.60;;;;;;5051906;28;20402;-71
2023/10/05 01:09:55;;;;;;;0.10;0.10;;;13.90;69.10;;;;;;5054287;28;20040;-70
2023/10/05 01:14:53;;;;;;;0.75;0.75;;;13.90;69.10;;;;;;5036675;28;20033;-70
2023/10/05 01:25:39;;;;;;;0.30;0.30;;;13.80;70.10;;;;;;5038201;28;20099;-70
2023/10/05 01:28:07;;;;;;;0.43;0.30;;;13.80;69.30;;;;;;5035608;28;20110;-70
2023/10/05 01:30:37;;;;;;;1.17;0.82;;;13.80;69.30;;;;;;5052618;28;20061;-70
2023/10/05 01:33:04;;;;;;;0.40;0.40;;;13.80;69.40;;;;;;5036609;28;20040;-70
2023/10/05 01:35:30;;;;;;;0.10;0.10;;;13.80;69.00;;;;;;5053080;28;20039;-70
2023/10/05 01:37:59;;;;;;;0.63;0.57;;;13.80;69.70;;;;;;5052127;28;20041;-71
2023/10/05 01:40:30;;;;;;;2.38;0.77;;;13.80;69.50;;;;;;5035015;28;20064;-70
2023/10/05 01:42:56;;;;;;;0.80;0.47;;;13.90;69.80;;;;;;5053428;28;20371;-70
2023/10/05 01:45:25;;;;;;;;;;;13.90;69.80;;;;;;5053722;28;20061;-70
2023/10/05 01:47:52;;;;;;;0.80;0.50;;;13.90;69.90;;;;;;5052178;28;19912;-70
2023/10/05 01:50:27;;;;;;;0.73;0.65;;;13.80;69.90;;;;;;5034523;28;20029;-70
2023/10/05 01:53:15;;;;;;;4.55;0.85;;;13.90;70.20;;;;;;5053330;28;20104;-70
2023/10/05 01:55:44;;;;;;;;;;;13.90;70.10;;;;;;5038466;28;20040;-70
2023/10/05 01:58:13;;;;;;;0.98;0.75;;;13.90;69.90;;;;;;5035692;28;20370;-70
2023/10/05 02:00:40;;;;;;;1.52;1.33;;;13.90;70.10;;;;;;5050828;28;20056;-70
2023/10/05 02:05:58;;;;;;;;;;;13.90;70.40;;;;;;5038041;28;20041;-70
2023/10/05 02:08:27;;;;;;;0.45;0.45;;;13.90;70.20;;;;;;5035460;28;19948;-70
2023/10/05 02:10:53;;;;;;;0.93;0.65;;;13.90;70.40;;;;;;5051748;28;20106;-70
2023/10/05 02:13:19;;;;;;;0.63;0.63;;;13.90;70.60;;;;;;5052929;28;20041;-70
2023/10/05 02:15:53;;;;;;;;;;;13.80;70.50;;;;;;5018802;28;20067;-70
2023/10/05 02:18:31;;;;;;;2.00;0.82;;;13.80;70.60;;;;;;5052086;28;19970;-70
2023/10/05 02:23:44;;;;;;;0.67;0.53;;;13.80;70.80;;;;;;5052880;28;20065;-70
2023/10/05 02:26:23;;;;;;;0.13;0.13;;;13.80;70.70;;;;;;5052090;28;20035;-70
2023/10/05 02:28:51;;;;;;;0.35;0.35;;;13.80;70.80;;;;;;5036056;28;20389;-70
2023/10/05 02:31:20;;;;;;;0.47;0.47;;;13.70;70.90;;;;;;5050314;28;20543;-70
2023/10/05 02:33:46;;;;;;;0.40;0.30;;;13.70;70.90;;;;;;5052655;28;20466;-70
2023/10/05 02:36:21;;;;;;;1.83;1.13;;;13.70;71.20;;;;;;5051790;28;20059;-70
2023/10/05 02:38:53;;;;;;;0.55;0.43;;;13.60;71.20;;;;;;5052592;28;20037;-70
2023/10/05 02:41:39;;;;;;;0.77;0.55;;;13.60;71.30;;;;;;5051349;28;20029;-70
2023/10/05 02:46:48;;;;;;;1.13;0.65;;;13.50;71.00;;;;;;5036266;28;20036;-70
2023/10/05 02:49:35;;;;;;;;;;;13.50;71.20;;;;;;5034975;28;20044;-70
2023/10/05 02:52:04;;;;;;;0.40;0.40;;;13.50;70.80;;;;;;5051208;28;19916;-70
2023/10/05 02:54:30;;;;;;;0.45;0.30;;;13.30;70.80;;;;;;5034938;28;20040;-70
2023/10/05 02:56:56;;;;;;;0.40;0.30;;;13.20;71.10;;;;;;5033755;28;20033;-70
2023/10/05 02:59:26;;;;;;;0.70;0.43;;;13.20;70.90;;;;;;5050888;28;20071;-70
2023/10/05 03:07:25;;;;;;;0.50;0.40;;;13.20;71.40;;;;;;5036274;28;20043;-70
2023/10/05 03:09:52;;;;;;;1.48;0.85;;;13.10;71.30;;;;;;5034772;28;20440;-70
2023/10/05 03:12:23;;;;;;;0.77;0.77;;;13.10;71.40;;;;;;5033555;28;20104;-70
2023/10/05 03:14:54;;;;;;;0.40;0.40;;;13.10;71.00;;;;;;5050633;28;20096;-70
2023/10/05 03:17:21;;;;;;;0.43;0.43;;;13.10;71.60;;;;;;5034275;28;20025;-70
2023/10/05 03:19:52;;;;;;;0.70;0.30;;;13.00;71.40;;;;;;5052146;28;20041;-70
2023/10/05 03:22:18;;;;;;;2.42;1.20;;;13.00;71.50;;;;;;5033446;28;20053;-70
2023/10/05 03:24:44;;;;;;;2.60;0.85;;;12.90;71.40;;;;;;5033841;28;20044;-70
2023/10/05 03:27:11;;;;;;;;;;;12.90;71.90;;;;;;5033973;28;20033;-70
2023/10/05 03:29:38;;;;;;;0.83;0.50;;;12.90;71.50;;;;;;5052046;28;19924;-70
2023/10/05 03:32:28;;;;;;;0.55;0.40;;;12.90;71.50;;;;;;5037350;28;20044;-70
2023/10/05 03:34:58;;;;;;;0.20;0.20;;;12.90;72.00;;;;;;5038954;28;20099;-70
2023/10/05 03:37:25;;;;;;;0.47;0.40;;;12.80;71.70;;;;;;5055450;28;20083;-70
2023/10/05 03:40:06;;;;;;;;;;;12.80;71.50;;;;;;5038571;28;20072;-70
2023/10/05 03:42:32;;;;;;;0.52;0.40;;;12.70;71.40;;;;;;5055393;28;19924;-70
2023/10/05 03:47:43;;;;;;;0.40;0.40;;;12.70;71.40;;;;;;5040340;28;20156;-70
2023/10/05 03:50:16;;;;;;;0.90;0.82;;;12.60;71.20;;;;;;5054360;28;20032;-70
2023/10/05 03:52:44;;;;;;;1.92;1.55;;;12.50;71.20;;;;;;5055542;28;20044;-70
2023/10/05 03:55:11;;;;;;;0.38;0.38;;;12.50;71.20;;;;;;5037076;28;20040;-70
2023/10/05 03:57:41;;;;;;;2.38;1.15;;;12.50;71.50;;;;;;5037507;28;20029;-70
2023/10/05 04:00:31;;;;;;;1.23;0.82;;;12.40;71.30;;;;;;5054432;28;20486;-70
2023/10/05 04:02:57;;;;;;;1.38;0.70;;;12.40;71.40;;;;;;5040721;28;20045;-71
2023/10/05 04:05:24;;;;;;;0.20;0.20;;;12.40;71.60;;;;;;5036970;28;20037;-70
2023/10/05 04:08:10;;;;;;;0.20;0.20;;;12.30;71.40;;;;;;5037675;28;20071;-70
2023/10/05 04:10:49;;;;;;;1.20;0.68;;;12.30;71.60;;;;;;5039409;28;20045;-70
2023/10/05 04:13:23;;;;;;;1.40;0.60;;;12.30;71.70;;;;;;5054216;28;20044;-70
2023/10/05 04:15:51;;;;;;;0.80;0.50;;;12.30;71.40;;;;;;5036764;28;20098;-70
2023/10/05 04:18:20;;;;;;;0.20;0.20;;;12.30;71.40;;;;;;5037293;28;20029;-70
2023/10/05 04:23:30;;;;;;;0.55;0.43;;;12.20;71.20;;;;;;5039761;28;20060;-70
2023/10/05 04:25:56;;;;;;;0.70;0.55;;;12.10;70.70;;;;;;5054368;28;20029;-70
2023/10/05 04:28:32;;;;;;;2.17;0.65;;;12.00;70.60;;;;;;5020258;28;20487;-70
2023/10/05 04:30:59;;;;;;;0.40;0.40;;;12.00;70.80;;;;;;5053865;28;20051;-70
2023/10/05 04:36:11;;;;;;;0.68;0.65;;;11.80;70.70;;;;;;5054434;28;20492;-70
2023/10/05 04:38:37;;;;;;;1.63;1.15;;;11.90;70.70;;;;;;5037118;28;20496;-70
2023/10/05 04:41:04;;;;;;;1.65;0.65;;;11.90;70.60;;;;;;5052626;28;20430;-70
2023/10/05 04:43:30;;;;;;;0.50;0.50;;;11.80;70.70;;;;;;5036665;28;20116;-70
2023/10/05 04:45:56;;;;;;;1.02;0.70;;;11.90;70.70;;;;;;5036238;28;20032;-70
2023/10/05 04:48:23;;;;;;;0.65;0.50;;;11.90;70.80;;;;;;5019527;28;20103;-70
2023/10/05 04:50:50;;;;;;;0.45;0.45;;;11.80;71.00;;;;;;5034577;28;20038;-70
2023/10/05 04:53:17;;;;;;;0.55;0.32;;;11.80;71.00;;;;;;5019783;28;20401;-70
2023/10/05 04:55:44;;;;;;;0.98;0.50;;;11.80;71.20;;;;;;5036039;28;20504;-70
2023/10/05 05:08:26;;;;;;;1.13;0.63;;;11.60;70.40;;;;;;5052053;28;20041;-70
2023/10/05 05:10:53;;;;;;;0.70;0.68;;;11.60;70.60;;;;;;5035061;28;20029;-70
2023/10/05 05:13:22;;;;;;;2.65;0.30;;;11.50;70.40;;;;;;5053708;28;20047;-70
2023/10/05 05:15:48;;;;;;;1.70;0.75;;;11.60;70.60;;;;;;5053446;28;20452;-70
2023/10/05 05:18:14;;;;;;;0.70;0.45;;;11.60;70.60;;;;;;5019599;28;20033;-70
2023/10/05 05:20:43;;;;;;;0.38;0.35;;;11.60;70.30;;;;;;5053260;28;20060;-70
2023/10/05 05:23:11;;;;;;;0.47;0.35;;;11.50;70.30;;;;;;5036138;28;20056;-70
2023/10/05 05:25:37;;;;;;;0.50;0.50;;;11.50;70.40;;;;;;5053191;28;20071;-69
2023/10/05 05:28:05;;;;;;;0.30;0.25;;;11.50;69.90;;;;;;5036133;28;20371;-70
2023/10/05 05:30:36;;;;;;;1.02;0.77;;;11.30;69.30;;;;;;5034760;28;20495;-70
2023/10/05 05:35:47;;;;;;;0.77;0.47;;;11.20;68.90;;;;;;5037834;28;20113;-70
2023/10/05 05:38:13;;;;;;;0.70;0.55;;;11.10;69.50;;;;;;5053518;28;20041;-70
2023/10/05 05:40:39;;;;;;;0.52;0.50;;;11.10;69.70;;;;;;5034558;28;20029;-70
2023/10/05 05:45:51;;;;;;;0.20;0.20;;;11.10;69.90;;;;;;5037627;28;20126;-70
2023/10/05 05:48:18;;;;;;;0.98;0.68;;;11.20;70.00;;;;;;5053300;28;20060;-70
2023/10/05 05:50:45;;;;;;;0.75;0.52;;;11.20;69.90;;;;;;5052235;28;20025;-70
2023/10/05 05:53:11;;;;;;;0.82;0.40;;;11.20;70.20;;;;;;5018891;28;20037;-70
2023/10/05 05:58:23;;;;;;;8.02;0.43;;;11.30;70.10;;;;;;5037951;28;20052;-70
2023/10/05 06:00:52;;;;;;;0.20;0.20;;;11.30;70.80;;;;;;5034201;28;20033;-69
2023/10/05 06:03:18;;;;;;;0.35;0.32;;;11.30;71.00;;;;;;5035049;28;20573;-70
2023/10/05 06:05:44;;;;;;;;;;;11.40;71.00;;;;;;5035116;28;20406;-70
2023/10/05 06:08:11;;;;;;;0.65;0.60;;;11.40;71.00;;;;;;5052832;28;20031;-70
2023/10/05 06:10:37;;;;;;;0.55;0.50;;;11.50;71.20;;;;;;5034111;28;20060;-70
2023/10/05 06:13:06;;;;;;;0.52;0.52;;;11.50;71.50;;;;;;5034963;28;20066;-70
2023/10/05 06:15:34;;;;;;;1.13;0.95;;;11.60;71.10;;;;;;5034617;28;20104;-70
2023/10/05 06:18:00;;;;;;;0.30;0.30;;;11.60;71.80;;;;;;5035404;28;20033;-70
2023/10/05 06:20:26;;;;;;;0.30;0.25;;;11.70;72.20;;;;;;5051632;28;20048;-70
2023/10/05 06:22:52;;;;;;;0.80;0.73;;;11.70;72.10;;;;;;5052438;28;20053;-70
2023/10/05 06:25:19;;;;;;;2.75;1.10;;;11.80;72.10;;;;;;5052096;28;20071;-70
2023/10/05 06:27:47;;;;;;;2.03;0.65;;;11.90;72.20;;;;;;5034528;28;20053;-70
2023/10/05 06:30:14;;;;;;;1.23;0.65;;;12.00;72.30;;;;;;5033835;28;20115;-70
2023/10/05 06:32:43;;;;;;;1.02;0.75;;;12.00;72.30;;;;;;5034736;28;20029;-70
2023/10/05 06:35:13;;;;;;;1.40;0.77;;;12.10;72.40;;;;;;5034399;28;20120;-70
2023/10/05 06:37:41;;;;;;;0.38;0.38;;;12.20;72.50;;;;;;5034741;28;20128;-70
2023/10/05 06:42:53;;;;;;;0.30;0.28;;;12.40;72.50;;;;;;5037356;28;20040;-70
2023/10/05 06:45:19;;;;;;;1.25;0.60;;;12.40;72.60;;;;;;5034075;28;20108;-70
2023/10/05 06:47:45;;;;;;;;;;;12.50;72.70;;;;;;5052648;28;20045;-70
2023/10/05 06:50:12;;;;;;;0.45;0.30;;;12.60;72.20;;;;;;5033540;28;19916;-70
2023/10/05 06:52:42;;;;;;;2.83;1.15;;;12.70;72.70;;;;;;5052224;28;20040;-70
2023/10/05 06:55:12;;;;;;;0.88;0.82;;;12.70;73.20;;;;;;5033524;28;20045;-70
2023/10/05 06:57:39;;;;;;;0.77;0.50;;;12.80;73.80;;;;;;5034187;28;20029;-70
2023/10/05 07:00:25;;;;;;;0.32;0.32;;;12.80;73.80;;;;;;5033636;28;20039;-69
2023/10/05 07:03:05;;;;;;;3.23;1.70;;;12.90;74.50;;;;;;5034091;28;20437;-70
2023/10/05 07:05:32;;;;;;;2.38;1.50;;;13.00;74.40;;;;;;5035216;28;20127;-70
2023/10/05 07:07:58;;;;;;;1.35;0.95;;;13.10;74.60;;;;;;5051966;28;20041;-70
2023/10/05 07:10:25;;;;;;;;;;;13.20;74.90;;;;;;5051507;28;20037;-70
2023/10/05 07:12:51;;;;;;;1.83;1.00;;;13.30;74.50;;;;;;5051936;28;19919;-70
2023/10/05 07:15:17;;;;;;;1.83;1.05;;;13.40;74.80;;;;;;5033344;28;20127;-71
2023/10/05 07:17:45;;;;;;;3.03;1.33;;;13.50;75.00;;;;;;5051682;28;20060;-70
2023/10/05 07:20:11;;;;;;;0.60;0.50;;;13.60;75.30;;;;;;5033339;28;20547;-70
2023/10/05 07:22:40;;;;;;;3.90;0.75;;;13.70;75.20;;;;;;5033746;28;20184;-70
2023/10/05 07:25:08;;;;;;;0.40;0.30;;;13.90;75.30;;;;;;5033486;28;20040;-70
2023/10/05 07:27:35;;;;;;;0.52;0.47;;;14.00;75.10;;;;;;5050362;28;20446;-70
2023/10/05 07:30:04;;;;;;;0.43;0.40;;;14.20;75.00;;;;;;5051436;28;20489;-70
2023/10/05 07:32:48;;;;;;;1.55;0.93;;;14.40;74.60;;;;;;5016621;28;20045;-70
2023/10/05 07:35:14;;;;;;;1.80;0.73;;;14.70;74.40;;;;;;5051173;28;20065;-70
2023/10/05 07:37:41;;;;;;;1.50;0.50;;;14.90;74.10;;;;;;5033703;28;20066;-70
2023/10/05 07:40:13;;;;;;;;;;;15.10;73.50;;;;;;5051294;28;20037;-70
2023/10/05 07:42:40;;;;;;;1.65;1.20;;;15.30;73.00;;;;;;5034518;28;19920;-70
2023/10/05 07:45:25;;;;;;;1.40;1.13;;;15.50;72.60;;;;;;5016900;28;20037;-70
2023/10/05 07:47:51;;;;;;;0.63;0.50;;;16.50;70.30;;;;;;5051384;28;20037;-70
2023/10/05 07:50:17;;;;;;;1.55;0.20;;;18.10;65.30;;;;;;5050643;28;20025;-70
2023/10/05 07:52:49;;;;;;;;;;;19.30;61.70;;;;;;5034055;28;20028;-70
2023/10/05 07:55:15;;;;;;;1.35;0.55;;;20.00;60.40;;;;;;5050877;28;19917;-70
2023/10/05 07:57:42;;;;;;;;;;;20.30;58.20;;;;;;5034089;28;20029;-71
2023/10/05 08:00:12;;;;;;;4.68;0.55;;;20.70;59.20;;;;;;5032852;28;19917;-71
2023/10/05 08:02:39;;;;;;;0.68;0.40;;;21.50;55.50;;;;;;5049992;28;20506;-70
2023/10/05 08:05:05;;;;;;;0.20;0.20;;;21.90;53.80;;;;;;5033359;28;20095;-70
2023/10/05 08:07:32;;;;;;;1.60;1.33;;;22.30;52.50;;;;;;5051234;28;20494;-71
2023/10/05 08:09:59;;;;;;;1.05;0.50;;;22.50;52.00;;;;;;5051181;28;20048;-71
2023/10/05 08:12:27;;;;;;;1.75;0.85;;;23.20;50.40;;;;;;5032776;28;20037;-71
2023/10/05 08:14:57;;;;;;;0.80;0.40;;;23.40;48.10;;;;;;5033948;28;20474;-71
2023/10/05 08:17:23;;;;;;;0.52;0.40;;;23.80;46.80;;;;;;5036277;28;20036;-70
2023/10/05 08:19:49;;;;;;;2.08;0.95;;;24.60;45.30;;;;;;5021084;28;20039;-71
2023/10/05 08:22:16;;;;;;;;;;;25.40;42.40;;;;;;5050518;28;20487;-71
2023/10/05 08:24:43;;;;;;;0.40;0.35;;;26.50;41.50;;;;;;5017591;28;19921;-71
2023/10/05 08:27:13;;;;;;;0.13;0.13;;;27.30;38.00;;;;;;5016841;28;20095;-71
2023/10/05 08:29:42;;;;;;;0.45;0.43;;;28.10;36.50;;;;;;5001214;28;20053;-71
2023/10/05 08:32:13;;;;;;;0.40;0.40;;;28.80;33.70;;;;;;5034097;28;20030;-71
2023/10/05 08:34:58;;;;;;;1.60;0.90;;;29.30;33.10;;;;;;5018009;28;20045;-71
2023/10/05 08:37:27;;;;;;;1.45;0.90;;;30.00;31.20;;;;;;5000461;28;20095;-71
2023/10/05 08:39:53;;;;;;;0.98;0.80;;;30.60;30.10;;;;;;5035325;28;20293;-71
2023/10/05 08:42:20;;;;;;;1.08;0.90;;;30.50;29.20;;;;;;5033749;28;20034;-71
2023/10/05 08:44:48;;;;;;;1.08;0.73;;;30.00;30.10;;;;;;5035020;28;20117;-71
2023/10/05 08:47:15;;;;;;;0.93;0.57;;;29.50;29.70;;;;;;5016421;28;20034;-71
2023/10/05 08:49:43;;;;;;;1.10;0.80;;;29.20;30.80;;;;;;5033445;28;20072;-71
2023/10/05 08:52:20;;;;;;;1.52;1.08;;;29.90;30.30;;;;;;5033604;28;20048;-71
2023/10/05 08:54:47;;;;;;;3.10;1.88;;;30.80;29.20;;;;;;5034865;28;20386;-71
2023/10/05 08:57:26;;;;;;;2.75;0.60;;;31.50;27.80;;;;;;4999821;28;20056;-71
2023/10/05 08:59:54;;;;;;;0.90;0.77;;;32.60;26.60;;;;;;5034670;28;20038;-71
2023/10/05 09:02:21;;;;;;;1.45;1.33;;;33.60;25.60;;;;;;5032233;28;20103;-71
2023/10/05 09:05:07;;;;;;;0.68;0.55;;;34.00;23.20;;;;;;5034496;28;20037;-71
2023/10/05 09:07:37;;;;;;;1.23;0.80;;;34.50;20.50;;;;;;5016683;28;20052;-71
2023/10/05 09:10:26;;;;;;;2.58;1.65;;;34.80;22.10;;;;;;5016398;28;20413;-71
2023/10/05 09:13:13;;;;;;;0.98;0.88;;;35.50;21.70;;;;;;5017180;28;20418;-71
2023/10/05 09:15:57;;;;;;;2.22;1.55;;;34.70;21.60;;;;;;5033650;28;20392;-71
2023/10/05 09:18:25;;;;;;;0.65;0.52;;;33.00;23.10;;;;;;5033003;28;20040;-71
2023/10/05 09:20:52;;;;;;;0.40;0.40;;;31.80;24.60;;;;;;5015682;28;20115;-71
2023/10/05 09:23:24;;;;;;;0.95;0.75;;;31.20;26.20;;;;;;5016139;28;20132;-71
2023/10/05 09:25:50;;;;;;;3.28;1.38;;;30.60;26.60;;;;;;5016659;28;20091;-71
2023/10/05 09:28:45;;;;;;;1.48;1.05;;;30.00;27.00;;;;;;5033423;28;20413;-71
2023/10/05 09:31:11;;;;;;;0.60;0.52;;;29.30;26.90;;;;;;5032877;28;20047;-71
2023/10/05 09:33:49;;;;;;;0.25;0.25;;;28.60;27.90;;;;;;4999779;28;20486;-71
2023/10/05 09:36:19;;;;;;;0.85;0.85;;;28.00;27.90;;;;;;5015871;28;20338;-71
2023/10/05 09:38:46;;;;;;;0.68;0.60;;;27.70;28.10;;;;;;5033848;28;20133;-71
2023/10/05 09:41:17;;;;;;;3.13;0.80;;;27.50;28.20;;;;;;5015205;28;20037;-71
2023/10/05 09:43:44;;;;;;;0.57;0.40;;;27.20;28.60;;;;;;4999841;28;20382;-71
2023/10/05 09:46:12;;;;;;;0.40;0.30;;;27.00;28.60;;;;;;5015368;28;20050;-71
2023/10/05 09:48:39;;;;;;;0.68;0.68;;;26.80;29.10;;;;;;5032131;28;20049;-71
2023/10/05 09:51:24;;;;;;;0.40;0.40;;;26.70;29.30;;;;;;5014812;28;20116;-71
2023/10/05 09:53:52;;;;;;;1.25;0.80;;;26.50;28.80;;;;;;4999328;28;20037;-71
2023/10/05 09:56:20;;;;;;;0.68;0.52;;;26.50;28.10;;;;;;5032834;28;20057;-71
2023/10/05 09:58:46;;;;;;;0.68;0.35;;;26.20;28.20;;;;;;5015607;28;20038;-71
2023/10/05 10:04:07;;;;;;;0.25;0.25;;;26.00;28.70;;;;;;5018988;28;20548;-71
2023/10/05 10:06:35;;;;;;;0.28;0.22;;;25.80;28.60;;;;;;5032548;28;20034;-71
2023/10/05 10:09:11;;;;;;;1.58;0.60;;;25.80;27.90;;;;;;4999359;28;20041;-71
2023/10/05 10:11:37;;;;;;;1.02;0.60;;;25.70;29.00;;;;;;5030971;28;20497;-71
2023/10/05 10:14:15;;;;;;;0.55;0.35;;;25.80;29.30;;;;;;5033270;28;20363;-71
2023/10/05 10:16:46;;;;;;;0.10;0.10;;;25.80;28.00;;;;;;5016014;28;20490;-71
2023/10/05 10:19:45;;;;;;;0.80;0.30;;;25.80;28.50;;;;;;5033237;28;20045;-70
2023/10/05 10:22:12;;;;;;;0.22;0.22;;;25.80;28.10;;;;;;5019148;28;20057;-71
2023/10/05 10:24:40;;;;;;;0.10;0.10;;;25.70;28.20;;;;;;5053095;28;20052;-71
2023/10/05 10:27:07;;;;;;;0.20;0.20;;;25.60;28.70;;;;;;5052125;28;20094;-70
2023/10/05 10:29:53;;;;;;;0.30;0.30;;;25.70;29.30;;;;;;5034827;28;20048;-71
2023/10/05 10:35:09;;;;;;;0.20;0.20;;;25.70;29.80;;;;;;5037234;28;20067;-70
2023/10/05 10:40:48;;;;;;;0.88;0.80;;;25.50;29.90;;;;;;5051087;28;20040;-71
2023/10/05 10:43:14;;;;;;;0.52;0.20;;;25.40;30.00;;;;;;5036013;28;20123;-71
2023/10/05 10:45:44;;;;;;;1.30;0.88;;;25.20;30.00;;;;;;5051806;28;20021;-71
2023/10/05 10:48:21;;;;;;;0.75;0.43;;;25.10;29.70;;;;;;5052206;28;20128;-70
2023/10/05 10:51:10;;;;;;;0.17;0.17;;;25.10;29.40;;;;;;5051193;28;20493;-70
2023/10/05 10:53:42;;;;;;;0.55;0.40;;;25.20;29.90;;;;;;5051237;28;20067;-71
2023/10/05 10:56:21;;;;;;;0.55;0.55;;;25.20;30.20;;;;;;5051615;28;20037;-70
2023/10/05 10:58:56;;;;;;;0.35;0.25;;;25.20;30.20;;;;;;5051131;28;20139;-70
2023/10/05 11:04:23;;;;;;;0.95;0.65;;;25.10;30.10;;;;;;5037057;28;20437;-70
2023/10/05 11:07:10;;;;;;;0.10;0.10;;;24.90;30.80;;;;;;5035775;28;20039;-70
2023/10/05 11:09:47;;;;;;;;;;;24.90;30.60;;;;;;5018206;28;20037;-71
2023/10/05 11:12:17;;;;;;;0.90;0.50;;;24.70;31.00;;;;;;5017891;28;19917;-71
2023/10/05 11:14:44;;;;;;;0.47;0.25;;;24.60;31.60;;;;;;5034071;28;20033;-70
2023/10/05 11:17:31;;;;;;;0.20;0.20;;;24.50;30.90;;;;;;5033860;28;20040;-70
2023/10/05 11:20:14;;;;;;;0.28;0.22;;;25.00;31.00;;;;;;5034246;28;20037;-71
2023/10/05 11:22:42;;;;;;;0.40;0.40;;;26.00;29.10;;;;;;5035684;28;20053;-71
2023/10/05 11:25:16;;;;;;;0.63;0.45;;;25.90;28.20;;;;;;5033905;28;20672;-71
2023/10/05 11:28:07;;;;;;;1.23;0.35;;;25.70;28.70;;;;;;5034784;28;20549;-71
2023/10/05 11:30:47;;;;;;;0.90;0.60;;;26.10;27.90;;;;;;5050747;28;20084;-70
2023/10/05 11:33:16;;;;;;;0.22;0.22;;;26.40;28.00;;;;;;5035801;28;20582;-71
2023/10/05 11:36:17;;;;;;;2.22;0.38;;;26.10;28.00;;;;;;5051057;28;20056;-71
2023/10/05 11:38:43;;;;;;;0.68;0.45;;;25.70;29.00;;;;;;5051733;28;20048;-71
2023/10/05 11:41:16;;;;;;;0.30;0.30;;;25.60;29.30;;;;;;5032939;28;20303;-71
2023/10/05 11:44:01;;;;;;;0.73;0.50;;;25.60;29.50;;;;;;5051550;28;20069;-71
2023/10/05 11:46:46;;;;;;;1.30;0.85;;;25.70;29.50;;;;;;5033167;28;20087;-71
2023/10/05 11:49:13;;;;;;;0.30;0.30;;;25.80;29.60;;;;;;5051851;28;20048;-71
2023/10/05 11:54:31;;;;;;;0.22;0.20;;;26.50;27.90;;;;;;5055245;28;20041;-71
2023/10/05 11:57:05;;;;;;;0.20;0.20;;;26.40;28.00;;;;;;5054942;28;20071;-71
2023/10/05 11:59:35;;;;;;;0.22;0.22;;;26.70;27.70;;;;;;5054350;28;20041;-71
2023/10/05 12:02:05;;;;;;;0.73;0.63;;;28.00;26.50;;;;;;5036998;28;20049;-71
2023/10/05 12:04:31;;;;;;;0.65;0.65;;;28.20;26.20;;;;;;5020111;28;20040;-71
2023/10/05 12:07:00;;;;;;;0.30;0.30;;;28.00;26.30;;;;;;5054136;28;20075;-71
2023/10/05 12:09:47;;;;;;;0.35;0.30;;;28.00;26.50;;;;;;5037737;28;20064;-71
2023/10/05 12:15:12;;;;;;;2.05;0.25;;;28.40;26.60;;;;;;5055415;28;20052;-71
2023/10/05 12:17:41;;;;;;;0.30;0.30;;;29.10;26.20;;;;;;5055077;28;20057;-71
2023/10/05 12:20:27;;;;;;;1.60;1.27;;;28.80;25.10;;;;;;5054636;28;20029;-72
2023/10/05 12:22:53;;;;;;;1.20;0.47;;;28.20;25.90;;;;;;5037109;28;20060;-71
2023/10/05 12:25:24;;;;;;;0.43;0.38;;;28.10;26.70;;;;;;5036717;28;20044;-71
2023/10/05 12:27:51;;;;;;;0.43;0.35;;;28.40;26.30;;;;;;5037701;28;20375;-71
2023/10/05 12:30:21;;;;;;;0.20;0.20;;;28.20;26.00;;;;;;5053842;28;20375;-71
2023/10/05 12:32:47;;;;;;;1.17;0.95;;;28.00;27.10;;;;;;5054692;28;20025;-71
2023/10/05 12:35:13;;;;;;;1.60;1.27;;;27.80;26.50;;;;;;5036354;28;20048;-71
2023/10/05 12:37:44;;;;;;;0.20;0.20;;;27.80;26.50;;;;;;5036790;28;20082;-71
2023/10/05 12:42:57;;;;;;;0.10;0.10;;;27.70;26.70;;;;;;5039795;28;20036;-71
2023/10/05 12:45:23;;;;;;;1.13;0.55;;;27.80;26.50;;;;;;5054083;28;20048;-71
2023/10/05 12:48:08;;;;;;;0.25;0.20;;;27.90;26.50;;;;;;5054429;28;20478;-71
2023/10/05 12:50:34;;;;;;;0.20;0.20;;;27.90;26.80;;;;;;5053476;28;20498;-71
2023/10/05 12:53:01;;;;;;;1.17;0.40;;;28.30;26.50;;;;;;5036547;28;20079;-71
2023/10/05 12:55:27;;;;;;;1.17;0.43;;;29.10;26.40;;;;;;5036025;28;20051;-71
2023/10/05 12:57:53;;;;;;;0.77;0.77;;;29.50;24.80;;;;;;5054410;28;20036;-71
2023/10/05 13:00:22;;;;;;;0.28;0.28;;;29.80;23.20;;;;;;5035447;28;20086;-71
2023/10/05 13:02:51;;;;;;;0.30;0.30;;;29.40;23.50;;;;;;5035759;28;20033;-71
2023/10/05 13:05:21;;;;;;;1.55;0.75;;;29.10;23.80;;;;;;5035901;28;20025;-71
2023/10/05 13:07:48;;;;;;;0.80;0.50;;;30.30;23.30;;;;;;5036544;28;20033;-71
2023/10/05 13:10:21;;;;;;;0.40;0.25;;;32.60;21.10;;;;;;5018680;28;20033;-71
2023/10/05 13:15:53;;;;;;;0.90;0.45;;;36.10;17.40;;;;;;5038380;28;20040;-71
2023/10/05 13:18:19;;;;;;;0.30;0.30;;;37.10;16.70;;;;;;5054258;28;20488;-71
2023/10/05 13:20:50;;;;;;;0.80;0.50;;;38.00;16.60;;;;;;5035201;28;20111;-71
2023/10/05 13:23:24;;;;;;;1.92;1.77;;;38.50;15.70;;;;;;5036109;28;20061;-71
2023/10/05 13:25:52;;;;;;;0.73;0.35;;;39.20;16.20;;;;;;5053437;28;20032;-71
2023/10/05 13:28:38;;;;;;;0.25;0.25;;;39.50;14.00;;;;;;5035744;28;20037;-71
2023/10/05 13:31:07;;;;;;;4.80;0.85;;;40.10;13.50;;;;;;5052769;28;20044;-71
2023/10/05 13:36:19;;;;;;;0.20;0.20;;;40.90;13.30;;;;;;5037824;28;20163;-71
2023/10/05 13:38:46;;;;;;;0.93;0.90;;;41.80;12.40;;;;;;5035835;28;20071;-72
2023/10/05 13:41:18;;;;;;;0.30;0.30;;;42.30;13.10;;;;;;5052514;28;20033;-71
2023/10/05 13:43:47;;;;;;;0.47;0.43;;;42.90;12.70;;;;;;5052324;28;20045;-71
2023/10/05 13:46:16;;;;;;;2.78;0.50;;;43.20;12.40;;;;;;5035418;28;20029;-71
2023/10/05 13:49:01;;;;;;;0.20;0.20;;;43.10;11.40;;;;;;5035952;28;20115;-71
2023/10/05 13:51:33;;;;;;;0.40;0.32;;;42.80;11.60;;;;;;5052533;28;20057;-72
2023/10/05 13:54:06;;;;;;;0.73;0.73;;;42.50;12.10;;;;;;5053764;28;20044;-71
2023/10/05 13:56:33;;;;;;;0.60;0.60;;;41.80;12.00;;;;;;5035908;28;20044;-72
2023/10/05 13:59:05;;;;;;;1.08;0.70;;;41.40;12.10;;;;;;5053300;28;20037;-71
2023/10/05 14:01:52;;;;;;;0.70;0.70;;;40.60;12.20;;;;;;5035265;28;20405;-71
2023/10/05 14:04:20;;;;;;;0.80;0.80;;;40.50;11.90;;;;;;5053400;28;20045;-71
2023/10/05 14:06:48;;;;;;;0.77;0.77;;;39.40;13.60;;;;;;5052545;28;20033;-71
2023/10/05 14:09:16;;;;;;;0.60;0.55;;;38.80;13.40;;;;;;5035279;28;20045;-71
2023/10/05 14:11:42;;;;;;;0.40;0.40;;;39.20;13.30;;;;;;5051883;28;20056;-72
2023/10/05 14:14:10;;;;;;;0.52;0.52;;;38.80;13.20;;;;;;5034213;28;20032;-72
2023/10/05 14:16:44;;;;;;;0.40;0.40;;;38.40;14.00;;;;;;5034503;28;20053;-71
2023/10/05 14:19:10;;;;;;;0.50;0.50;;;39.00;13.90;;;;;;5051750;28;20448;-72
2023/10/05 14:21:37;;;;;;;0.60;0.55;;;39.70;12.90;;;;;;5033872;28;20132;-72
2023/10/05 14:24:04;;;;;;;0.52;0.52;;;40.00;13.30;;;;;;5035072;28;20056;-71
2023/10/05 14:26:30;;;;;;;0.45;0.40;;;40.10;13.00;;;;;;5049845;28;20082;-71
2023/10/05 14:28:56;;;;;;;0.52;0.52;;;40.20;12.60;;;;;;5052529;28;20045;-71
2023/10/05 14:31:23;;;;;;;0.30;0.30;;;40.40;13.60;;;;;;5051737;28;20497;-71
2023/10/05 14:33:50;;;;;;;0.45;0.45;;;40.60;13.10;;;;;;5052513;28;20044;-71
2023/10/05 14:36:20;;;;;;;0.65;0.63;;;40.50;13.00;;;;;;5050857;28;20029;-71
2023/10/05 14:38:48;;;;;;;0.70;0.65;;;40.70;12.90;;;;;;5052782;28;20045;-72
2023/10/05 14:41:14;;;;;;;0.55;0.55;;;40.60;12.10;;;;;;5033548;28;20040;-72
2023/10/05 14:43:47;;;;;;;0.73;0.73;;;40.60;12.50;;;;;;5034656;28;20092;-72